createdAt,value
2022-08-25T00:02:21.848Z,96907.78
2022-08-25T00:05:18.865Z,96902.13
2022-08-25T00:08:16.071Z,96910.59
2022-08-25T00:11:21.072Z,96899.31
2022-08-25T00:14:36.938Z,96901.78
2022-08-25T00:17:33.858Z,96899.03
2022-08-25T00:20:31.269Z,96908.78
2022-08-25T00:23:28.127Z,96902.66
2022-08-25T00:26:26.559Z,96913.00
2022-08-25T00:29:26.310Z,96894.00
2022-08-25T00:32:24.476Z,96896.66
2022-08-25T00:35:21.595Z,96899.81
2022-08-25T00:38:18.498Z,96894.28
2022-08-25T00:41:21.761Z,96896.13
2022-08-25T00:44:19.705Z,96897.53
2022-08-25T00:47:17.596Z,96900.19
2022-08-25T00:50:15.760Z,96903.84
2022-08-25T00:53:13.404Z,96900.34
2022-08-25T00:56:12.993Z,96901.00
2022-08-25T00:59:10.695Z,96898.09
2022-08-25T01:02:13.633Z,96897.38
2022-08-25T01:05:11.109Z,96897.88
2022-08-25T01:08:09.324Z,96896.41
2022-08-25T01:11:10.807Z,96891.47
2022-08-25T01:14:09.507Z,96898.25
2022-08-25T01:17:06.387Z,96886.59
2022-08-25T01:20:03.988Z,96886.22
2022-08-25T01:23:01.611Z,96886.91
2022-08-25T01:26:21.136Z,96889.38
2022-08-25T01:29:27.912Z,96875.13
2022-08-25T01:32:25.327Z,96884.38
2022-08-25T01:35:22.168Z,96883.44
2022-08-25T01:38:20.871Z,96871.63
2022-08-25T01:41:40.139Z,96873.06
2022-08-25T01:44:45.299Z,96876.06
2022-08-25T01:47:42.179Z,96870.94
2022-08-25T01:50:40.540Z,96871.06
2022-08-25T01:53:37.370Z,96866.25
2022-08-25T01:56:34.287Z,96870.84
2022-08-25T01:59:31.146Z,96865.66
2022-08-25T02:02:28.219Z,96868.03
2022-08-25T02:05:28.374Z,96872.66
2022-08-25T02:08:29.577Z,96873.94
2022-08-25T02:11:27.068Z,96870.31
2022-08-25T02:14:24.176Z,96873.63
2022-08-25T02:17:21.095Z,96867.34
2022-08-25T02:20:18.045Z,96872.41
2022-08-25T02:23:15.503Z,96876.44
2022-08-25T02:26:16.652Z,96875.03
2022-08-25T02:29:13.626Z,96874.31
2022-08-25T02:32:10.473Z,96864.84
2022-08-25T02:35:08.882Z,96869.53
2022-08-25T02:38:06.744Z,96861.03
2022-08-25T02:41:19.628Z,96868.13
2022-08-25T02:44:16.470Z,96876.13
2022-08-25T02:47:13.305Z,96860.25
2022-08-25T02:50:10.828Z,96859.56
2022-08-25T02:53:07.668Z,96852.47
2022-08-25T02:56:04.614Z,96862.88
2022-08-25T02:59:02.816Z,96859.19
2022-08-25T03:01:59.677Z,96856.16
2022-08-25T03:04:57.218Z,96856.88
2022-08-25T03:07:54.149Z,96847.72
2022-08-25T03:10:52.068Z,96848.66
2022-08-25T03:13:52.035Z,96844.69
2022-08-25T03:16:49.025Z,96847.66
2022-08-25T03:19:46.567Z,96847.81
2022-08-25T03:22:43.786Z,96838.50
2022-08-25T03:26:00.644Z,96843.59
2022-08-25T03:28:59.226Z,96849.16
2022-08-25T03:31:58.272Z,96853.91
2022-08-25T03:34:55.232Z,96859.47
2022-08-25T03:37:57.011Z,96854.69
2022-08-25T03:40:54.173Z,96861.03
2022-08-25T03:43:51.486Z,96854.34
2022-08-25T03:46:51.935Z,96859.81
2022-08-25T03:49:48.820Z,96849.69
2022-08-25T03:52:51.425Z,96855.34
2022-08-25T03:55:48.521Z,96852.16
2022-08-25T03:58:45.821Z,96860.44
2022-08-25T04:01:45.620Z,96861.22
2022-08-25T04:04:42.539Z,96856.41
2022-08-25T04:07:39.643Z,96852.84
2022-08-25T04:10:37.815Z,96851.81
2022-08-25T04:13:36.750Z,96850.53
2022-08-25T04:16:35.726Z,96859.47
2022-08-25T04:19:32.585Z,96860.59
2022-08-25T04:22:31.054Z,96853.06
2022-08-25T04:25:29.300Z,96841.78
2022-08-25T04:28:26.270Z,96839.13
2022-08-25T04:31:23.822Z,96841.44
2022-08-25T04:34:29.942Z,96837.16
2022-08-25T04:37:28.174Z,96839.72
2022-08-25T04:40:29.065Z,96841.66
2022-08-25T04:43:26.193Z,96845.88
2022-08-25T04:46:26.860Z,96834.00
2022-08-25T04:49:23.919Z,96831.75
2022-08-25T04:52:20.817Z,96846.97
2022-08-25T04:55:18.220Z,96842.44
2022-08-25T04:58:17.117Z,96849.34
2022-08-25T05:01:18.383Z,96844.63
2022-08-25T05:04:28.390Z,96843.50
2022-08-25T05:07:25.895Z,96843.09
2022-08-25T05:10:23.407Z,96850.19
2022-08-25T05:13:23.423Z,96853.13
2022-08-25T05:16:24.641Z,96847.38
2022-08-25T05:19:22.770Z,96857.38
2022-08-25T05:22:19.612Z,96852.25
2022-08-25T05:25:16.551Z,96836.13
2022-08-25T05:28:14.775Z,96838.22
2022-08-25T05:31:14.084Z,96837.97
2022-08-25T05:34:12.110Z,96842.69
2022-08-25T05:37:12.021Z,96828.19
2022-08-25T05:40:10.288Z,96820.78
2022-08-25T05:43:07.200Z,96811.03
2022-08-25T05:46:04.301Z,96814.16
2022-08-25T05:49:01.934Z,96806.06
2022-08-25T05:51:59.260Z,96817.78
2022-08-25T05:54:56.126Z,96809.81
2022-08-25T05:57:52.973Z,96813.75
2022-08-25T06:00:51.240Z,96815.56
2022-08-25T06:03:49.282Z,96813.06
2022-08-25T06:06:46.848Z,96804.09
2022-08-25T06:09:45.989Z,96814.34
2022-08-25T06:12:44.886Z,96813.59
2022-08-25T06:15:41.781Z,96811.53
2022-08-25T06:18:38.655Z,96808.28
2022-08-25T06:21:37.336Z,96808.09
2022-08-25T06:24:34.369Z,96806.94
2022-08-25T06:27:31.531Z,96807.81
2022-08-25T06:30:29.078Z,96811.56
2022-08-25T06:33:27.031Z,96785.34
2022-08-25T06:36:24.116Z,96787.13
2022-08-25T06:39:22.181Z,96786.19
2022-08-25T06:42:19.420Z,96785.88
2022-08-25T06:45:16.571Z,96783.66
2022-08-25T06:48:13.534Z,96779.84
2022-08-25T06:51:14.908Z,96776.00
2022-08-25T06:54:12.259Z,96777.09
2022-08-25T06:57:09.493Z,96770.59
2022-08-25T07:00:10.599Z,96771.53
2022-08-25T07:03:09.274Z,96766.09
2022-08-25T07:06:08.511Z,96759.25
2022-08-25T07:09:09.260Z,96767.31
2022-08-25T07:12:06.738Z,96756.97
2022-08-25T07:15:19.503Z,96761.47
2022-08-25T07:18:17.158Z,96763.13
2022-08-25T07:21:15.570Z,96761.00
2022-08-25T07:24:14.529Z,96751.28
2022-08-25T07:27:11.482Z,96744.25
2022-08-25T07:30:09.948Z,96750.97
2022-08-25T07:33:11.332Z,96749.88
2022-08-25T07:36:08.606Z,96737.88
2022-08-25T07:39:06.377Z,96734.84
2022-08-25T07:42:03.453Z,96734.00
2022-08-25T07:45:00.337Z,96725.41
2022-08-25T07:48:04.623Z,96727.53
2022-08-25T07:51:08.781Z,96719.31
2022-08-25T07:54:06.268Z,96723.94
2022-08-25T07:57:04.836Z,96710.16
2022-08-25T08:00:02.076Z,96725.66
2022-08-25T08:03:08.058Z,96722.44
2022-08-25T08:06:13.259Z,96712.34
2022-08-25T08:09:12.030Z,96716.16
2022-08-25T08:12:09.474Z,96707.94
2022-08-25T08:15:10.295Z,96710.56
2022-08-25T08:18:07.562Z,96717.56
2022-08-25T08:21:04.704Z,96724.31
2022-08-25T08:24:02.074Z,96719.41
2022-08-25T08:27:02.716Z,96720.19
2022-08-25T08:29:59.607Z,96708.44
2022-08-25T08:33:12.855Z,96710.59
2022-08-25T08:36:12.488Z,96721.06
2022-08-25T08:39:09.452Z,96709.84
2022-08-25T08:42:29.930Z,96713.09
2022-08-25T08:45:40.208Z,96713.53
2022-08-25T08:49:02.071Z,96709.75
2022-08-25T08:52:03.073Z,96711.38
2022-08-25T08:55:07.738Z,96709.47
2022-08-25T08:58:26.559Z,96706.63
2022-08-25T09:01:54.112Z,96713.72
2022-08-25T09:05:03.723Z,96712.50
2022-08-25T09:08:07.562Z,96722.25
2022-08-25T09:11:50.402Z,96715.16
2022-08-25T09:15:13.325Z,96721.41
2022-08-25T09:18:39.010Z,96710.25
2022-08-25T09:21:57.319Z,96708.66
2022-08-25T09:25:39.646Z,96706.34
2022-08-25T09:28:51.372Z,96695.75
2022-08-25T09:31:49.558Z,96707.88
2022-08-25T09:34:50.266Z,96695.44
2022-08-25T09:38:01.718Z,96694.31
2022-08-25T09:41:01.721Z,96694.59
2022-08-25T09:43:58.567Z,96686.81
2022-08-25T09:47:13.802Z,96689.94
2022-08-25T09:50:18.462Z,96684.91
2022-08-25T09:53:18.598Z,96680.66
2022-08-25T09:56:19.278Z,96678.38
2022-08-25T09:59:35.239Z,96668.22
2022-08-25T10:02:32.862Z,96656.47
2022-08-25T10:05:35.122Z,96659.63
2022-08-25T10:08:40.795Z,96647.88
2022-08-25T10:11:45.057Z,96652.56
2022-08-25T10:14:44.233Z,96640.84
2022-08-25T10:17:41.922Z,96648.66
2022-08-25T10:20:38.833Z,96637.69
2022-08-25T10:23:51.619Z,96633.78
2022-08-25T10:27:39.244Z,96625.94
2022-08-25T10:31:06.988Z,96619.34
2022-08-25T10:34:12.276Z,96614.63
2022-08-25T10:37:32.982Z,96606.38
2022-08-25T10:41:09.971Z,96593.50
2022-08-25T10:45:00.579Z,96589.13
2022-08-25T10:48:34.957Z,96587.25
2022-08-25T10:51:54.636Z,96589.19
2022-08-25T10:55:13.224Z,96592.34
2022-08-25T10:58:51.254Z,96593.91
2022-08-25T11:02:22.706Z,96592.34
2022-08-25T11:05:44.031Z,96593.09
2022-08-25T11:08:53.439Z,96584.09
2022-08-25T11:11:59.561Z,96577.84
2022-08-25T11:15:03.656Z,96566.09
2022-08-25T11:18:14.969Z,96565.16
2022-08-25T11:21:20.390Z,96558.75
2022-08-25T11:24:39.163Z,96557.91
2022-08-25T11:28:11.950Z,96541.69
2022-08-25T11:31:10.586Z,96548.22
2022-08-25T11:34:14.427Z,96532.59
2022-08-25T11:37:26.034Z,96531.06
2022-08-25T11:40:38.784Z,96531.22
2022-08-25T11:44:20.428Z,96525.34
2022-08-25T11:47:45.589Z,96539.69
2022-08-25T11:51:03.317Z,96542.09
2022-08-25T11:54:30.263Z,96537.72
2022-08-25T11:57:27.222Z,96537.34
2022-08-25T12:00:42.650Z,96544.25
2022-08-25T12:03:39.440Z,96534.16
2022-08-25T12:06:36.919Z,96531.88
2022-08-25T12:09:49.861Z,96534.84
2022-08-25T12:12:46.631Z,96538.38
2022-08-25T12:15:43.320Z,96537.97
2022-08-25T12:18:45.823Z,96537.66
2022-08-25T12:21:43.255Z,96533.28
2022-08-25T12:24:47.931Z,96522.75
2022-08-25T12:28:23.307Z,96524.75
2022-08-25T12:31:47.596Z,96526.69
2022-08-25T12:35:10.280Z,96524.00
2022-08-25T12:38:31.739Z,96510.88
2022-08-25T12:41:33.759Z,96507.84
2022-08-25T12:44:44.673Z,96517.44
2022-08-25T12:47:47.541Z,96513.56
2022-08-25T12:50:48.170Z,96513.13
2022-08-25T12:54:12.419Z,96512.91
2022-08-25T12:57:44.637Z,96518.88
2022-08-25T13:01:39.284Z,96509.78
2022-08-25T13:05:19.619Z,96508.72
2022-08-25T13:08:33.924Z,96510.66
2022-08-25T13:11:46.675Z,96503.47
2022-08-25T13:14:52.198Z,96496.06
2022-08-25T13:17:49.195Z,96488.78
2022-08-25T13:21:28.371Z,96479.53
2022-08-25T13:24:41.688Z,96479.53
2022-08-25T13:27:39.818Z,96480.63
2022-08-25T13:30:39.127Z,96479.25
2022-08-25T13:33:37.226Z,96467.88
2022-08-25T13:37:04.051Z,96465.38
2022-08-25T13:40:12.824Z,96470.81
2022-08-25T13:43:13.349Z,96470.81
2022-08-25T13:46:10.710Z,96462.91
2022-08-25T13:49:09.321Z,96457.63
2022-08-25T13:52:07.263Z,96451.97
2022-08-25T13:55:04.850Z,96458.63
2022-08-25T13:58:03.615Z,96458.25
2022-08-25T14:01:48.133Z,96457.88
2022-08-25T14:04:50.538Z,96458.63
2022-08-25T14:08:15.745Z,96460.59
2022-08-25T14:11:34.340Z,96447.47
2022-08-25T14:14:35.149Z,96443.16
2022-08-25T14:17:39.592Z,96446.19
2022-08-25T14:20:43.258Z,96445.75
2022-08-25T14:23:42.219Z,96437.44
2022-08-25T14:26:39.178Z,96430.84
2022-08-25T14:29:52.900Z,96444.38
2022-08-25T14:32:51.041Z,96430.88
2022-08-25T14:35:51.555Z,96432.84
2022-08-25T14:38:54.635Z,96435.63
2022-08-25T14:41:53.901Z,96433.47
2022-08-25T14:44:50.847Z,96428.22
2022-08-25T14:47:49.824Z,96436.28
2022-08-25T14:50:47.110Z,96424.44
2022-08-25T14:53:47.847Z,96429.50
2022-08-25T14:56:48.284Z,96434.16
2022-08-25T14:59:45.137Z,96432.88
2022-08-25T15:02:47.934Z,96430.91
2022-08-25T15:05:46.197Z,96427.63
2022-08-25T15:09:03.552Z,96422.63
2022-08-25T15:12:00.443Z,96415.59
2022-08-25T15:14:58.201Z,96413.16
2022-08-25T15:17:58.116Z,96400.88
2022-08-25T15:20:57.442Z,96407.69
2022-08-25T15:23:56.540Z,96400.44
2022-08-25T15:26:57.581Z,96403.09
2022-08-25T15:29:54.425Z,96402.91
2022-08-25T15:32:52.006Z,96399.19
2022-08-25T15:35:53.492Z,96396.63
2022-08-25T15:38:51.208Z,96391.69
2022-08-25T15:41:54.140Z,96384.22
2022-08-25T15:44:53.387Z,96383.34
2022-08-25T15:47:53.877Z,96395.22
2022-08-25T15:50:56.781Z,96390.16
2022-08-25T15:53:53.963Z,96396.41
2022-08-25T15:56:52.487Z,96396.97
2022-08-25T15:59:49.364Z,96394.63
2022-08-25T16:02:46.504Z,96389.91
2022-08-25T16:05:47.957Z,96393.72
2022-08-25T16:08:45.704Z,96397.19
2022-08-25T16:11:43.393Z,96390.88
2022-08-25T16:14:40.578Z,96396.97
2022-08-25T16:17:37.426Z,96393.81
2022-08-25T16:20:37.832Z,96395.78
2022-08-25T16:23:34.689Z,96398.59
2022-08-25T16:26:32.631Z,96392.69
2022-08-25T16:29:35.887Z,96388.94
2022-08-25T16:32:32.963Z,96388.88
2022-08-25T16:35:29.858Z,96397.53
2022-08-25T16:38:26.696Z,96389.44
2022-08-25T16:41:33.848Z,96394.75
2022-08-25T16:44:30.768Z,96384.81
2022-08-25T16:47:27.616Z,96387.47
2022-08-25T16:50:25.472Z,96380.91
2022-08-25T16:53:40.896Z,96387.13
2022-08-25T16:56:42.735Z,96376.34
2022-08-25T16:59:39.809Z,96388.63
2022-08-25T17:02:37.366Z,96381.22
2022-08-25T17:05:41.876Z,96377.69
2022-08-25T17:08:39.307Z,96375.72
2022-08-25T17:11:46.888Z,96374.28
2022-08-25T17:14:43.727Z,96375.72
2022-08-25T17:17:40.574Z,96378.00
2022-08-25T17:20:38.242Z,96378.91
2022-08-25T17:23:36.701Z,96381.88
2022-08-25T17:26:36.972Z,96378.97
2022-08-25T17:29:34.977Z,96375.78
2022-08-25T17:32:31.838Z,96374.28
2022-08-25T17:35:29.578Z,96372.34
2022-08-25T17:38:28.442Z,96372.44
2022-08-25T17:41:25.904Z,96371.31
2022-08-25T17:44:22.790Z,96377.97
2022-08-25T17:47:19.648Z,96381.16
2022-08-25T17:50:16.968Z,96389.78
2022-08-25T17:53:14.393Z,96385.56
2022-08-25T17:56:19.113Z,96389.03
2022-08-25T17:59:16.798Z,96384.69
2022-08-25T18:02:14.467Z,96389.09
2022-08-25T18:05:12.953Z,96386.78
2022-08-25T18:08:10.491Z,96392.28
2022-08-25T18:11:08.470Z,96398.50
2022-08-25T18:14:05.448Z,96402.84
2022-08-25T18:17:03.711Z,96410.66
2022-08-25T18:20:06.118Z,96405.97
2022-08-25T18:23:05.814Z,96411.81
2022-08-25T18:26:06.748Z,96408.28
2022-08-25T18:29:05.100Z,96418.78
2022-08-25T18:32:02.824Z,96424.66
2022-08-25T18:35:02.021Z,96431.25
2022-08-25T18:38:17.294Z,96436.25
2022-08-25T18:41:14.393Z,96437.75
2022-08-25T18:44:11.577Z,96445.88
2022-08-25T18:47:08.418Z,96448.22
2022-08-25T18:50:06.173Z,96438.06
2022-08-25T18:53:04.411Z,96438.81
2022-08-25T18:56:03.589Z,96446.53
2022-08-25T18:59:00.476Z,96448.16
2022-08-25T19:01:57.624Z,96448.28
2022-08-25T19:04:54.601Z,96455.31
2022-08-25T19:07:52.059Z,96451.72
2022-08-25T19:10:52.793Z,96452.41
2022-08-25T19:13:50.803Z,96452.28
2022-08-25T19:16:47.673Z,96449.44
2022-08-25T19:19:44.911Z,96441.72
2022-08-25T19:22:42.391Z,96441.66
2022-08-25T19:25:41.620Z,96444.59
2022-08-25T19:28:38.712Z,96446.25
2022-08-25T19:31:45.599Z,96437.25
2022-08-25T19:34:47.272Z,96443.00
2022-08-25T19:37:49.818Z,96440.25
2022-08-25T19:40:49.899Z,96440.50
2022-08-25T19:43:55.804Z,96437.75
2022-08-25T19:46:54.385Z,96443.94
2022-08-25T19:49:51.693Z,96438.91
2022-08-25T19:52:49.950Z,96444.63
2022-08-25T19:55:47.081Z,96451.72
2022-08-25T19:58:43.935Z,96445.81
2022-08-25T20:01:41.984Z,96453.97
2022-08-25T20:04:38.867Z,96463.25
2022-08-25T20:07:37.055Z,96454.19
2022-08-25T20:10:39.489Z,96451.03
2022-08-25T20:13:39.020Z,96459.50
2022-08-25T20:16:37.906Z,96454.91
2022-08-25T20:19:34.771Z,96459.16
2022-08-25T20:22:33.172Z,96457.09
2022-08-25T20:25:36.779Z,96456.31
2022-08-25T20:28:33.903Z,96463.31
2022-08-25T20:31:31.760Z,96461.94
2022-08-25T20:34:29.763Z,96462.00
2022-08-25T20:37:29.880Z,96453.41
2022-08-25T20:40:30.094Z,96455.75
2022-08-25T20:43:29.509Z,96463.88
2022-08-25T20:46:26.476Z,96450.34
2022-08-25T20:49:26.718Z,96456.38
2022-08-25T20:52:23.571Z,96456.47
2022-08-25T20:55:21.789Z,96454.72
2022-08-25T20:58:18.627Z,96450.16
2022-08-25T21:01:24.132Z,96455.19
2022-08-25T21:04:23.912Z,96453.03
2022-08-25T21:07:23.923Z,96451.69
2022-08-25T21:10:21.115Z,96453.44
2022-08-25T21:13:17.935Z,96458.38
2022-08-25T21:16:15.114Z,96459.66
2022-08-25T21:19:15.084Z,96460.41
2022-08-25T21:22:12.558Z,96452.41
2022-08-25T21:25:10.310Z,96449.69
2022-08-25T21:28:07.775Z,96454.59
2022-08-25T21:31:08.379Z,96451.81
2022-08-25T21:34:05.477Z,96460.78
2022-08-25T21:37:02.371Z,96459.13
2022-08-25T21:39:59.265Z,96450.72
2022-08-25T21:42:56.719Z,96450.03
2022-08-25T21:45:53.639Z,96458.06
2022-08-25T21:48:53.104Z,96453.28
2022-08-25T21:51:59.326Z,96459.47
2022-08-25T21:54:57.575Z,96453.50
2022-08-25T21:57:54.786Z,96456.47
2022-08-25T22:00:51.713Z,96458.38
2022-08-25T22:03:50.281Z,96457.66
2022-08-25T22:06:47.785Z,96454.25
2022-08-25T22:09:44.646Z,96460.63
2022-08-25T22:12:41.579Z,96456.63
2022-08-25T22:15:38.423Z,96461.50
2022-08-25T22:18:35.268Z,96460.88
2022-08-25T22:21:32.715Z,96450.31
2022-08-25T22:24:29.645Z,96445.25
2022-08-25T22:27:26.562Z,96442.78
2022-08-25T22:30:25.409Z,96447.38
2022-08-25T22:33:26.188Z,96448.03
2022-08-25T22:36:30.694Z,96445.50
2022-08-25T22:39:28.308Z,96452.81
2022-08-25T22:42:25.516Z,96444.94
2022-08-25T22:45:22.684Z,96452.72
2022-08-25T22:48:20.771Z,96450.16
2022-08-25T22:51:22.282Z,96449.00
2022-08-25T22:54:19.138Z,96461.31
2022-08-25T22:57:16.047Z,96451.47
2022-08-25T23:00:16.712Z,96454.25
2022-08-25T23:03:13.640Z,96445.03
2022-08-25T23:06:24.835Z,96453.53
2022-08-25T23:09:22.301Z,96444.69
2022-08-25T23:12:23.576Z,96448.56
2022-08-25T23:15:20.415Z,96457.78
2022-08-25T23:18:18.408Z,96452.50
2022-08-25T23:21:41.055Z,96462.66
2022-08-25T23:24:46.061Z,96446.91
2022-08-25T23:27:42.914Z,96453.91
2022-08-25T23:30:42.783Z,96439.28
2022-08-25T23:33:41.965Z,96441.03
2022-08-25T23:36:38.940Z,96440.75
2022-08-25T23:39:36.139Z,96442.63
2022-08-25T23:42:36.137Z,96439.13
2022-08-25T23:45:34.301Z,96446.84
2022-08-25T23:48:31.564Z,96432.66
2022-08-25T23:51:34.472Z,96435.09
2022-08-25T23:54:34.144Z,96429.84
2022-08-25T23:57:31.931Z,96429.75
